sensor_id;sensor_type;location;lat;lon;timestamp;pressure;altitude;pressure_sealevel;temperature
79488;BMP180;68949;53.176;18.088;2023-12-04T00:02:23;100540.60;;;
79488;BMP180;68949;53.176;18.088;2023-12-04T00:04:50;100545.60;;;
79488;BMP180;68949;53.176;18.088;2023-12-04T00:07:17;100537.60;;;
79488;BMP180;68949;53.176;18.088;2023-12-04T00:09:43;100540.40;;;
79488;BMP180;68949;53.176;18.088;2023-12-04T00:12:10;100546.40;;;
79488;BMP180;68949;53.176;18.088;2023-12-04T00:14:37;100542.40;;;
79488;BMP180;68949;53.176;18.088;2023-12-04T00:17:03;100545.20;;;
79488;BMP180;68949;53.176;18.088;2023-12-04T00:19:30;100544.20;;;
79488;BMP180;68949;53.176;18.088;2023-12-04T00:21:57;100546.00;;;
79488;BMP180;68949;53.176;18.088;2023-12-04T00:24:24;100549.20;;;
79488;BMP180;68949;53.176;18.088;2023-12-04T00:26:50;100549.00;;;
79488;BMP180;68949;53.176;18.088;2023-12-04T00:29:17;100551.20;;;
79488;BMP180;68949;53.176;18.088;2023-12-04T00:31:43;100548.80;;;
79488;BMP180;68949;53.176;18.088;2023-12-04T00:34:10;100555.40;;;
79488;BMP180;68949;53.176;18.088;2023-12-04T00:36:38;100554.80;;;
79488;BMP180;68949;53.176;18.088;2023-12-04T00:39:05;100554.20;;;
79488;BMP180;68949;53.176;18.088;2023-12-04T00:41:32;100551.00;;;
79488;BMP180;68949;53.176;18.088;2023-12-04T00:43:58;100555.00;;;
79488;BMP180;68949;53.176;18.088;2023-12-04T00:46:25;100554.20;;;
79488;BMP180;68949;53.176;18.088;2023-12-04T00:48:52;100552.80;;;
79488;BMP180;68949;53.176;18.088;2023-12-04T00:51:19;100559.80;;;
79488;BMP180;68949;53.176;18.088;2023-12-04T00:53:45;100554.40;;;
79488;BMP180;68949;53.176;18.088;2023-12-04T00:56:12;100558.60;;;
79488;BMP180;68949;53.176;18.088;2023-12-04T00:58:39;100561.20;;;
79488;BMP180;68949;53.176;18.088;2023-12-04T01:01:06;100556.80;;;
79488;BMP180;68949;53.176;18.088;2023-12-04T01:03:33;100563.40;;;
79488;BMP180;68949;53.176;18.088;2023-12-04T01:06:00;100563.00;;;
79488;BMP180;68949;53.176;18.088;2023-12-04T01:08:27;100569.60;;;
79488;BMP180;68949;53.176;18.088;2023-12-04T01:10:54;100568.00;;;
79488;BMP180;68949;53.176;18.088;2023-12-04T01:13:20;100567.20;;;
79488;BMP180;68949;53.176;18.088;2023-12-04T01:15:47;100565.80;;;
79488;BMP180;68949;53.176;18.088;2023-12-04T01:18:15;100565.20;;;
79488;BMP180;68949;53.176;18.088;2023-12-04T01:20:41;100570.40;;;
79488;BMP180;68949;53.176;18.088;2023-12-04T01:23:08;100571.00;;;
79488;BMP180;68949;53.176;18.088;2023-12-04T01:25:35;100571.40;;;
79488;BMP180;68949;53.176;18.088;2023-12-04T01:28:01;100573.80;;;
79488;BMP180;68949;53.176;18.088;2023-12-04T01:30:28;100570.60;;;
79488;BMP180;68949;53.176;18.088;2023-12-04T01:32:55;100568.60;;;
79488;BMP180;68949;53.176;18.088;2023-12-04T01:35:21;100576.00;;;
79488;BMP180;68949;53.176;18.088;2023-12-04T01:37:48;100571.40;;;
79488;BMP180;68949;53.176;18.088;2023-12-04T01:40:15;100574.40;;;
79488;BMP180;68949;53.176;18.088;2023-12-04T01:42:42;100575.00;;;
79488;BMP180;68949;53.176;18.088;2023-12-04T01:45:09;100576.20;;;
79488;BMP180;68949;53.176;18.088;2023-12-04T01:47:36;100576.40;;;
79488;BMP180;68949;53.176;18.088;2023-12-04T01:50:05;100571.40;;;
79488;BMP180;68949;53.176;18.088;2023-12-04T01:52:32;100571.40;;;
79488;BMP180;68949;53.176;18.088;2023-12-04T01:54:59;100575.00;;;
79488;BMP180;68949;53.176;18.088;2023-12-04T01:57:25;100572.80;;;
79488;BMP180;68949;53.176;18.088;2023-12-04T01:59:52;100574.80;;;
79488;BMP180;68949;53.176;18.088;2023-12-04T02:02:20;100577.20;;;
79488;BMP180;68949;53.176;18.088;2023-12-04T02:04:47;100581.40;;;
79488;BMP180;68949;53.176;18.088;2023-12-04T02:07:13;100584.40;;;
79488;BMP180;68949;53.176;18.088;2023-12-04T02:09:40;100591.20;;;
79488;BMP180;68949;53.176;18.088;2023-12-04T02:12:07;100593.00;;;
79488;BMP180;68949;53.176;18.088;2023-12-04T02:14:33;100596.40;;;
79488;BMP180;68949;53.176;18.088;2023-12-04T02:17:05;100595.40;;;
79488;BMP180;68949;53.176;18.088;2023-12-04T02:19:32;100594.00;;;
79488;BMP180;68949;53.176;18.088;2023-12-04T02:21:59;100601.40;;;
79488;BMP180;68949;53.176;18.088;2023-12-04T02:24:26;100597.20;;;
79488;BMP180;68949;53.176;18.088;2023-12-04T02:26:59;100585.80;;;
79488;BMP180;68949;53.176;18.088;2023-12-04T02:29:58;100586.40;;;
79488;BMP180;68949;53.176;18.088;2023-12-04T02:32:31;100581.60;;;
79488;BMP180;68949;53.176;18.088;2023-12-04T02:35:03;100578.80;;;
79488;BMP180;68949;53.176;18.088;2023-12-04T02:37:32;100583.00;;;
79488;BMP180;68949;53.176;18.088;2023-12-04T02:40:00;100580.20;;;
79488;BMP180;68949;53.176;18.088;2023-12-04T02:42:27;100582.60;;;
79488;BMP180;68949;53.176;18.088;2023-12-04T02:44:54;100586.80;;;
79488;BMP180;68949;53.176;18.088;2023-12-04T02:47:20;100581.60;;;
79488;BMP180;68949;53.176;18.088;2023-12-04T02:49:47;100587.40;;;
79488;BMP180;68949;53.176;18.088;2023-12-04T02:52:14;100582.60;;;
79488;BMP180;68949;53.176;18.088;2023-12-04T02:54:40;100589.20;;;
79488;BMP180;68949;53.176;18.088;2023-12-04T02:57:07;100587.80;;;
79488;BMP180;68949;53.176;18.088;2023-12-04T02:59:34;100596.80;;;
79488;BMP180;68949;53.176;18.088;2023-12-04T03:02:00;100594.40;;;
79488;BMP180;68949;53.176;18.088;2023-12-04T03:04:31;100595.80;;;
79488;BMP180;68949;53.176;18.088;2023-12-04T03:06:58;100592.00;;;
79488;BMP180;68949;53.176;18.088;2023-12-04T03:09:24;100596.80;;;
79488;BMP180;68949;53.176;18.088;2023-12-04T03:11:51;100600.60;;;
79488;BMP180;68949;53.176;18.088;2023-12-04T03:14:18;100602.80;;;
79488;BMP180;68949;53.176;18.088;2023-12-04T03:16:44;100604.00;;;
79488;BMP180;68949;53.176;18.088;2023-12-04T03:19:11;100603.60;;;
79488;BMP180;68949;53.176;18.088;2023-12-04T03:21:38;100604.20;;;
79488;BMP180;68949;53.176;18.088;2023-12-04T03:24:04;100604.80;;;
79488;BMP180;68949;53.176;18.088;2023-12-04T03:26:31;100606.80;;;
79488;BMP180;68949;53.176;18.088;2023-12-04T03:28:58;100608.80;;;
79488;BMP180;68949;53.176;18.088;2023-12-04T03:31:25;100603.80;;;
79488;BMP180;68949;53.176;18.088;2023-12-04T03:33:51;100607.20;;;
79488;BMP180;68949;53.176;18.088;2023-12-04T03:36:18;100612.60;;;
79488;BMP180;68949;53.176;18.088;2023-12-04T03:38:45;100611.00;;;
79488;BMP180;68949;53.176;18.088;2023-12-04T03:41:15;100606.00;;;
79488;BMP180;68949;53.176;18.088;2023-12-04T03:43:42;100610.80;;;
79488;BMP180;68949;53.176;18.088;2023-12-04T03:46:09;100615.60;;;
79488;BMP180;68949;53.176;18.088;2023-12-04T03:48:36;100610.20;;;
79488;BMP180;68949;53.176;18.088;2023-12-04T03:51:04;100615.00;;;
79488;BMP180;68949;53.176;18.088;2023-12-04T03:53:31;100615.00;;;
79488;BMP180;68949;53.176;18.088;2023-12-04T03:55:58;100612.20;;;
79488;BMP180;68949;53.176;18.088;2023-12-04T03:58:25;100615.40;;;
79488;BMP180;68949;53.176;18.088;2023-12-04T04:00:52;100613.60;;;
79488;BMP180;68949;53.176;18.088;2023-12-04T04:03:19;100611.00;;;
79488;BMP180;68949;53.176;18.088;2023-12-04T04:05:45;100607.40;;;
79488;BMP180;68949;53.176;18.088;2023-12-04T04:08:12;100601.00;;;
79488;BMP180;68949;53.176;18.088;2023-12-04T04:10:39;100599.80;;;
79488;BMP180;68949;53.176;18.088;2023-12-04T04:13:05;100600.60;;;
79488;BMP180;68949;53.176;18.088;2023-12-04T04:15:32;100599.20;;;
79488;BMP180;68949;53.176;18.088;2023-12-04T04:17:58;100603.80;;;
79488;BMP180;68949;53.176;18.088;2023-12-04T04:20:25;100599.80;;;
79488;BMP180;68949;53.176;18.088;2023-12-04T04:22:52;100601.80;;;
79488;BMP180;68949;53.176;18.088;2023-12-04T04:25:20;100608.20;;;
79488;BMP180;68949;53.176;18.088;2023-12-04T04:27:49;100607.00;;;
79488;BMP180;68949;53.176;18.088;2023-12-04T04:30:15;100607.20;;;
79488;BMP180;68949;53.176;18.088;2023-12-04T04:32:43;100607.60;;;
79488;BMP180;68949;53.176;18.088;2023-12-04T04:35:10;100609.80;;;
79488;BMP180;68949;53.176;18.088;2023-12-04T04:37:37;100607.00;;;
79488;BMP180;68949;53.176;18.088;2023-12-04T04:40:05;100609.20;;;
79488;BMP180;68949;53.176;18.088;2023-12-04T04:42:31;100605.40;;;
79488;BMP180;68949;53.176;18.088;2023-12-04T04:44:58;100606.20;;;
79488;BMP180;68949;53.176;18.088;2023-12-04T04:47:25;100602.80;;;
79488;BMP180;68949;53.176;18.088;2023-12-04T04:49:52;100602.00;;;
79488;BMP180;68949;53.176;18.088;2023-12-04T04:52:18;100604.60;;;
79488;BMP180;68949;53.176;18.088;2023-12-04T04:54:45;100610.80;;;
79488;BMP180;68949;53.176;18.088;2023-12-04T04:57:12;100610.00;;;
79488;BMP180;68949;53.176;18.088;2023-12-04T04:59:39;100601.60;;;
79488;BMP180;68949;53.176;18.088;2023-12-04T05:02:05;100596.20;;;
79488;BMP180;68949;53.176;18.088;2023-12-04T05:04:32;100594.20;;;
79488;BMP180;68949;53.176;18.088;2023-12-04T05:06:59;100599.60;;;
79488;BMP180;68949;53.176;18.088;2023-12-04T05:09:25;100597.20;;;
79488;BMP180;68949;53.176;18.088;2023-12-04T05:11:52;100601.00;;;
79488;BMP180;68949;53.176;18.088;2023-12-04T05:14:19;100598.80;;;
79488;BMP180;68949;53.176;18.088;2023-12-04T05:16:45;100601.20;;;
79488;BMP180;68949;53.176;18.088;2023-12-04T05:19:12;100605.00;;;
79488;BMP180;68949;53.176;18.088;2023-12-04T05:21:39;100604.00;;;
79488;BMP180;68949;53.176;18.088;2023-12-04T05:24:05;100604.60;;;
79488;BMP180;68949;53.176;18.088;2023-12-04T05:26:32;100603.00;;;
79488;BMP180;68949;53.176;18.088;2023-12-04T05:28:59;100602.80;;;
79488;BMP180;68949;53.176;18.088;2023-12-04T05:31:26;100600.20;;;
79488;BMP180;68949;53.176;18.088;2023-12-04T05:33:53;100597.60;;;
79488;BMP180;68949;53.176;18.088;2023-12-04T05:36:19;100600.40;;;
79488;BMP180;68949;53.176;18.088;2023-12-04T05:38:46;100602.80;;;
79488;BMP180;68949;53.176;18.088;2023-12-04T05:41:13;100602.40;;;
79488;BMP180;68949;53.176;18.088;2023-12-04T05:43:40;100607.20;;;
79488;BMP180;68949;53.176;18.088;2023-12-04T05:46:06;100603.20;;;
79488;BMP180;68949;53.176;18.088;2023-12-04T05:48:33;100605.60;;;
79488;BMP180;68949;53.176;18.088;2023-12-04T05:51:00;100591.40;;;
79488;BMP180;68949;53.176;18.088;2023-12-04T05:53:27;100590.80;;;
79488;BMP180;68949;53.176;18.088;2023-12-04T05:55:55;100588.00;;;
79488;BMP180;68949;53.176;18.088;2023-12-04T05:58:22;100589.60;;;
79488;BMP180;68949;53.176;18.088;2023-12-04T06:00:48;100587.60;;;
79488;BMP180;68949;53.176;18.088;2023-12-04T06:03:15;100593.60;;;
79488;BMP180;68949;53.176;18.088;2023-12-04T06:05:42;100593.00;;;
79488;BMP180;68949;53.176;18.088;2023-12-04T06:08:09;100592.60;;;
79488;BMP180;68949;53.176;18.088;2023-12-04T06:10:35;100588.80;;;
79488;BMP180;68949;53.176;18.088;2023-12-04T06:13:02;100600.80;;;
79488;BMP180;68949;53.176;18.088;2023-12-04T06:15:29;100596.20;;;
79488;BMP180;68949;53.176;18.088;2023-12-04T06:17:56;100593.40;;;
79488;BMP180;68949;53.176;18.088;2023-12-04T06:20:22;100591.60;;;
79488;BMP180;68949;53.176;18.088;2023-12-04T06:22:49;100593.60;;;
79488;BMP180;68949;53.176;18.088;2023-12-04T06:25:17;100589.40;;;
79488;BMP180;68949;53.176;18.088;2023-12-04T06:27:45;100589.80;;;
79488;BMP180;68949;53.176;18.088;2023-12-04T06:30:12;100595.20;;;
79488;BMP180;68949;53.176;18.088;2023-12-04T06:32:40;100596.40;;;
79488;BMP180;68949;53.176;18.088;2023-12-04T06:35:07;100599.00;;;
79488;BMP180;68949;53.176;18.088;2023-12-04T06:37:36;100607.80;;;
79488;BMP180;68949;53.176;18.088;2023-12-04T06:40:05;100603.00;;;
79488;BMP180;68949;53.176;18.088;2023-12-04T06:42:35;100599.00;;;
79488;BMP180;68949;53.176;18.088;2023-12-04T06:45:03;100604.00;;;
79488;BMP180;68949;53.176;18.088;2023-12-04T06:47:31;100602.80;;;
79488;BMP180;68949;53.176;18.088;2023-12-04T06:49:59;100608.00;;;
79488;BMP180;68949;53.176;18.088;2023-12-04T06:52:25;100604.40;;;
79488;BMP180;68949;53.176;18.088;2023-12-04T06:54:52;100596.00;;;
79488;BMP180;68949;53.176;18.088;2023-12-04T06:57:18;100591.20;;;
79488;BMP180;68949;53.176;18.088;2023-12-04T06:59:46;100590.40;;;
79488;BMP180;68949;53.176;18.088;2023-12-04T07:02:12;100595.20;;;
79488;BMP180;68949;53.176;18.088;2023-12-04T07:04:39;100585.00;;;
79488;BMP180;68949;53.176;18.088;2023-12-04T07:07:06;100584.80;;;
79488;BMP180;68949;53.176;18.088;2023-12-04T07:09:34;100584.00;;;
79488;BMP180;68949;53.176;18.088;2023-12-04T07:12:01;100589.80;;;
79488;BMP180;68949;53.176;18.088;2023-12-04T07:14:29;100589.40;;;
79488;BMP180;68949;53.176;18.088;2023-12-04T07:16:55;100599.60;;;
79488;BMP180;68949;53.176;18.088;2023-12-04T07:19:22;100594.60;;;
79488;BMP180;68949;53.176;18.088;2023-12-04T07:21:49;100593.20;;;
79488;BMP180;68949;53.176;18.088;2023-12-04T07:24:16;100597.40;;;
79488;BMP180;68949;53.176;18.088;2023-12-04T07:26:43;100598.00;;;
79488;BMP180;68949;53.176;18.088;2023-12-04T07:29:09;100596.00;;;
79488;BMP180;68949;53.176;18.088;2023-12-04T07:31:37;100593.00;;;
79488;BMP180;68949;53.176;18.088;2023-12-04T07:34:04;100595.20;;;
79488;BMP180;68949;53.176;18.088;2023-12-04T07:36:31;100605.40;;;
79488;BMP180;68949;53.176;18.088;2023-12-04T07:38:57;100603.80;;;
79488;BMP180;68949;53.176;18.088;2023-12-04T07:41:24;100608.40;;;
79488;BMP180;68949;53.176;18.088;2023-12-04T07:43:51;100606.80;;;
79488;BMP180;68949;53.176;18.088;2023-12-04T07:46:17;100604.40;;;
79488;BMP180;68949;53.176;18.088;2023-12-04T07:48:44;100612.20;;;
79488;BMP180;68949;53.176;18.088;2023-12-04T07:51:12;100612.20;;;
79488;BMP180;68949;53.176;18.088;2023-12-04T07:53:38;100606.40;;;
79488;BMP180;68949;53.176;18.088;2023-12-04T07:56:06;100604.80;;;
79488;BMP180;68949;53.176;18.088;2023-12-04T07:58:33;100606.80;;;
79488;BMP180;68949;53.176;18.088;2023-12-04T08:00:59;100607.20;;;
79488;BMP180;68949;53.176;18.088;2023-12-04T08:03:27;100608.80;;;
79488;BMP180;68949;53.176;18.088;2023-12-04T08:05:54;100612.40;;;
79488;BMP180;68949;53.176;18.088;2023-12-04T08:08:20;100615.00;;;
79488;BMP180;68949;53.176;18.088;2023-12-04T08:10:47;100610.80;;;
79488;BMP180;68949;53.176;18.088;2023-12-04T08:13:14;100606.20;;;
79488;BMP180;68949;53.176;18.088;2023-12-04T08:15:43;100607.80;;;
79488;BMP180;68949;53.176;18.088;2023-12-04T08:18:10;100610.40;;;
79488;BMP180;68949;53.176;18.088;2023-12-04T08:20:37;100614.40;;;
79488;BMP180;68949;53.176;18.088;2023-12-04T08:23:04;100618.40;;;
79488;BMP180;68949;53.176;18.088;2023-12-04T08:25:30;100615.80;;;
79488;BMP180;68949;53.176;18.088;2023-12-04T08:27:58;100615.40;;;
79488;BMP180;68949;53.176;18.088;2023-12-04T08:30:26;100616.00;;;
79488;BMP180;68949;53.176;18.088;2023-12-04T08:32:54;100613.40;;;
79488;BMP180;68949;53.176;18.088;2023-12-04T08:35:21;100616.80;;;
79488;BMP180;68949;53.176;18.088;2023-12-04T08:37:48;100618.40;;;
79488;BMP180;68949;53.176;18.088;2023-12-04T08:40:15;100612.80;;;
79488;BMP180;68949;53.176;18.088;2023-12-04T08:42:43;100611.60;;;
79488;BMP180;68949;53.176;18.088;2023-12-04T08:45:11;100610.60;;;
79488;BMP180;68949;53.176;18.088;2023-12-04T08:47:38;100618.60;;;
79488;BMP180;68949;53.176;18.088;2023-12-04T08:50:06;100620.40;;;
79488;BMP180;68949;53.176;18.088;2023-12-04T08:52:33;100621.00;;;
79488;BMP180;68949;53.176;18.088;2023-12-04T08:55:00;100629.00;;;
79488;BMP180;68949;53.176;18.088;2023-12-04T08:57:28;100628.20;;;
79488;BMP180;68949;53.176;18.088;2023-12-04T08:59:54;100625.40;;;
79488;BMP180;68949;53.176;18.088;2023-12-04T09:02:21;100628.00;;;
79488;BMP180;68949;53.176;18.088;2023-12-04T09:04:48;100629.60;;;
79488;BMP180;68949;53.176;18.088;2023-12-04T09:07:14;100630.60;;;
79488;BMP180;68949;53.176;18.088;2023-12-04T09:09:41;100629.40;;;
79488;BMP180;68949;53.176;18.088;2023-12-04T09:12:10;100628.20;;;
79488;BMP180;68949;53.176;18.088;2023-12-04T09:14:37;100629.60;;;
79488;BMP180;68949;53.176;18.088;2023-12-04T09:17:04;100623.60;;;
79488;BMP180;68949;53.176;18.088;2023-12-04T09:19:32;100621.60;;;
79488;BMP180;68949;53.176;18.088;2023-12-04T09:21:58;100622.80;;;
79488;BMP180;68949;53.176;18.088;2023-12-04T09:24:25;100630.60;;;
79488;BMP180;68949;53.176;18.088;2023-12-04T09:26:54;100625.60;;;
79488;BMP180;68949;53.176;18.088;2023-12-04T09:29:21;100627.20;;;
79488;BMP180;68949;53.176;18.088;2023-12-04T09:31:53;100626.00;;;
79488;BMP180;68949;53.176;18.088;2023-12-04T09:34:20;100630.00;;;
79488;BMP180;68949;53.176;18.088;2023-12-04T09:36:47;100628.60;;;
79488;BMP180;68949;53.176;18.088;2023-12-04T09:39:16;100627.20;;;
79488;BMP180;68949;53.176;18.088;2023-12-04T09:41:45;100626.40;;;
79488;BMP180;68949;53.176;18.088;2023-12-04T09:44:13;100621.40;;;
79488;BMP180;68949;53.176;18.088;2023-12-04T09:46:42;100621.60;;;
79488;BMP180;68949;53.176;18.088;2023-12-04T09:49:10;100620.40;;;
79488;BMP180;68949;53.176;18.088;2023-12-04T09:51:37;100620.20;;;
79488;BMP180;68949;53.176;18.088;2023-12-04T09:54:06;100616.20;;;
79488;BMP180;68949;53.176;18.088;2023-12-04T09:56:34;100624.20;;;
79488;BMP180;68949;53.176;18.088;2023-12-04T09:59:05;100635.00;;;
79488;BMP180;68949;53.176;18.088;2023-12-04T10:01:33;100633.20;;;
79488;BMP180;68949;53.176;18.088;2023-12-04T10:04:02;100627.00;;;
79488;BMP180;68949;53.176;18.088;2023-12-04T10:06:31;100623.80;;;
79488;BMP180;68949;53.176;18.088;2023-12-04T10:08:58;100628.80;;;
79488;BMP180;68949;53.176;18.088;2023-12-04T10:11:25;100620.00;;;
79488;BMP180;68949;53.176;18.088;2023-12-04T10:13:54;100621.60;;;
79488;BMP180;68949;53.176;18.088;2023-12-04T10:16:33;100611.80;;;
79488;BMP180;68949;53.176;18.088;2023-12-04T10:19:22;100618.20;;;
79488;BMP180;68949;53.176;18.088;2023-12-04T10:21:50;100612.20;;;
79488;BMP180;68949;53.176;18.088;2023-12-04T10:24:34;100608.20;;;
79488;BMP180;68949;53.176;18.088;2023-12-04T10:27:07;100608.40;;;
79488;BMP180;68949;53.176;18.088;2023-12-04T10:29:49;100608.20;;;
79488;BMP180;68949;53.176;18.088;2023-12-04T10:32:19;100600.80;;;
79488;BMP180;68949;53.176;18.088;2023-12-04T10:34:49;100604.20;;;
79488;BMP180;68949;53.176;18.088;2023-12-04T10:37:16;100605.80;;;
79488;BMP180;68949;53.176;18.088;2023-12-04T10:39:51;100602.20;;;
79488;BMP180;68949;53.176;18.088;2023-12-04T10:42:29;100601.40;;;
79488;BMP180;68949;53.176;18.088;2023-12-04T10:44:59;100603.80;;;
79488;BMP180;68949;53.176;18.088;2023-12-04T10:47:29;100606.20;;;
79488;BMP180;68949;53.176;18.088;2023-12-04T10:49:59;100613.80;;;
79488;BMP180;68949;53.176;18.088;2023-12-04T10:52:28;100614.00;;;
79488;BMP180;68949;53.176;18.088;2023-12-04T10:54:56;100611.80;;;
79488;BMP180;68949;53.176;18.088;2023-12-04T10:57:35;100614.00;;;
79488;BMP180;68949;53.176;18.088;2023-12-04T11:00:05;100607.20;;;
79488;BMP180;68949;53.176;18.088;2023-12-04T11:02:35;100601.80;;;
79488;BMP180;68949;53.176;18.088;2023-12-04T11:05:08;100603.00;;;
79488;BMP180;68949;53.176;18.088;2023-12-04T11:07:44;100600.60;;;
79488;BMP180;68949;53.176;18.088;2023-12-04T11:10:12;100597.20;;;
79488;BMP180;68949;53.176;18.088;2023-12-04T11:12:45;100601.00;;;
79488;BMP180;68949;53.176;18.088;2023-12-04T11:15:17;100595.20;;;
79488;BMP180;68949;53.176;18.088;2023-12-04T11:17:52;100594.00;;;
79488;BMP180;68949;53.176;18.088;2023-12-04T11:20:23;100579.20;;;
79488;BMP180;68949;53.176;18.088;2023-12-04T11:22:52;100579.40;;;
79488;BMP180;68949;53.176;18.088;2023-12-04T11:25:20;100587.60;;;
79488;BMP180;68949;53.176;18.088;2023-12-04T11:27:54;100584.00;;;
79488;BMP180;68949;53.176;18.088;2023-12-04T11:30:22;100577.60;;;
79488;BMP180;68949;53.176;18.088;2023-12-04T11:32:49;100580.40;;;
79488;BMP180;68949;53.176;18.088;2023-12-04T11:35:18;100578.00;;;
79488;BMP180;68949;53.176;18.088;2023-12-04T11:37:47;100569.00;;;
79488;BMP180;68949;53.176;18.088;2023-12-04T11:40:15;100575.20;;;
79488;BMP180;68949;53.176;18.088;2023-12-04T11:42:42;100576.40;;;
79488;BMP180;68949;53.176;18.088;2023-12-04T11:45:18;100575.40;;;
79488;BMP180;68949;53.176;18.088;2023-12-04T11:47:55;100571.80;;;
79488;BMP180;68949;53.176;18.088;2023-12-04T11:50:26;100572.40;;;
79488;BMP180;68949;53.176;18.088;2023-12-04T11:52:54;100566.20;;;
79488;BMP180;68949;53.176;18.088;2023-12-04T11:55:22;100563.20;;;
79488;BMP180;68949;53.176;18.088;2023-12-04T11:57:51;100569.80;;;
79488;BMP180;68949;53.176;18.088;2023-12-04T12:00:21;100564.60;;;
79488;BMP180;68949;53.176;18.088;2023-12-04T12:03:03;100563.80;;;
79488;BMP180;68949;53.176;18.088;2023-12-04T12:05:33;100561.80;;;
79488;BMP180;68949;53.176;18.088;2023-12-04T12:08:05;100555.40;;;
79488;BMP180;68949;53.176;18.088;2023-12-04T12:10:33;100554.80;;;
79488;BMP180;68949;53.176;18.088;2023-12-04T12:13:01;100555.00;;;
79488;BMP180;68949;53.176;18.088;2023-12-04T12:15:28;100555.40;;;
79488;BMP180;68949;53.176;18.088;2023-12-04T12:17:56;100543.80;;;
79488;BMP180;68949;53.176;18.088;2023-12-04T12:20:22;100548.20;;;
79488;BMP180;68949;53.176;18.088;2023-12-04T12:22:51;100546.60;;;
79488;BMP180;68949;53.176;18.088;2023-12-04T12:25:19;100543.00;;;
79488;BMP180;68949;53.176;18.088;2023-12-04T12:27:46;100544.40;;;
79488;BMP180;68949;53.176;18.088;2023-12-04T12:30:13;100539.80;;;
79488;BMP180;68949;53.176;18.088;2023-12-04T12:32:40;100534.40;;;
79488;BMP180;68949;53.176;18.088;2023-12-04T12:35:07;100528.40;;;
79488;BMP180;68949;53.176;18.088;2023-12-04T12:37:39;100526.40;;;
79488;BMP180;68949;53.176;18.088;2023-12-04T12:40:09;100518.40;;;
79488;BMP180;68949;53.176;18.088;2023-12-04T12:42:38;100518.60;;;
79488;BMP180;68949;53.176;18.088;2023-12-04T12:45:09;100518.20;;;
79488;BMP180;68949;53.176;18.088;2023-12-04T12:47:42;100526.60;;;
79488;BMP180;68949;53.176;18.088;2023-12-04T12:50:09;100526.00;;;
79488;BMP180;68949;53.176;18.088;2023-12-04T12:52:39;100527.60;;;
79488;BMP180;68949;53.176;18.088;2023-12-04T12:55:07;100522.80;;;
79488;BMP180;68949;53.176;18.088;2023-12-04T12:57:34;100511.40;;;
79488;BMP180;68949;53.176;18.088;2023-12-04T13:00:01;100510.20;;;
79488;BMP180;68949;53.176;18.088;2023-12-04T13:02:28;100511.20;;;
79488;BMP180;68949;53.176;18.088;2023-12-04T13:04:55;100509.40;;;
79488;BMP180;68949;53.176;18.088;2023-12-04T13:07:22;100514.20;;;
79488;BMP180;68949;53.176;18.088;2023-12-04T13:09:49;100520.00;;;
79488;BMP180;68949;53.176;18.088;2023-12-04T13:12:16;100520.00;;;
79488;BMP180;68949;53.176;18.088;2023-12-04T13:14:43;100519.00;;;
79488;BMP180;68949;53.176;18.088;2023-12-04T13:17:10;100516.80;;;
79488;BMP180;68949;53.176;18.088;2023-12-04T13:19:37;100507.00;;;
79488;BMP180;68949;53.176;18.088;2023-12-04T13:22:04;100502.60;;;
79488;BMP180;68949;53.176;18.088;2023-12-04T13:24:30;100494.00;;;
79488;BMP180;68949;53.176;18.088;2023-12-04T13:26:57;100490.80;;;
79488;BMP180;68949;53.176;18.088;2023-12-04T13:29:24;100488.80;;;
79488;BMP180;68949;53.176;18.088;2023-12-04T13:31:50;100494.80;;;
79488;BMP180;68949;53.176;18.088;2023-12-04T13:34:17;100495.60;;;
79488;BMP180;68949;53.176;18.088;2023-12-04T13:36:44;100489.80;;;
79488;BMP180;68949;53.176;18.088;2023-12-04T13:39:11;100489.40;;;
79488;BMP180;68949;53.176;18.088;2023-12-04T13:41:45;100482.40;;;
79488;BMP180;68949;53.176;18.088;2023-12-04T13:44:31;100487.80;;;
79488;BMP180;68949;53.176;18.088;2023-12-04T13:46:59;100489.60;;;
79488;BMP180;68949;53.176;18.088;2023-12-04T13:49:26;100487.40;;;
79488;BMP180;68949;53.176;18.088;2023-12-04T13:51:53;100489.00;;;
79488;BMP180;68949;53.176;18.088;2023-12-04T13:54:21;100489.20;;;
79488;BMP180;68949;53.176;18.088;2023-12-04T13:56:53;100490.20;;;
79488;BMP180;68949;53.176;18.088;2023-12-04T13:59:21;100489.20;;;
79488;BMP180;68949;53.176;18.088;2023-12-04T14:01:49;100493.40;;;
79488;BMP180;68949;53.176;18.088;2023-12-04T14:04:17;100492.60;;;
79488;BMP180;68949;53.176;18.088;2023-12-04T14:06:44;100488.00;;;
79488;BMP180;68949;53.176;18.088;2023-12-04T14:09:12;100481.20;;;
79488;BMP180;68949;53.176;18.088;2023-12-04T14:11:44;100477.40;;;
79488;BMP180;68949;53.176;18.088;2023-12-04T14:14:12;100472.20;;;
79488;BMP180;68949;53.176;18.088;2023-12-04T14:16:42;100474.00;;;
79488;BMP180;68949;53.176;18.088;2023-12-04T14:19:09;100471.40;;;
79488;BMP180;68949;53.176;18.088;2023-12-04T14:21:36;100473.80;;;
79488;BMP180;68949;53.176;18.088;2023-12-04T14:24:05;100473.60;;;
79488;BMP180;68949;53.176;18.088;2023-12-04T14:26:32;100483.60;;;
79488;BMP180;68949;53.176;18.088;2023-12-04T14:28:59;100484.00;;;
79488;BMP180;68949;53.176;18.088;2023-12-04T14:31:27;100482.00;;;
79488;BMP180;68949;53.176;18.088;2023-12-04T14:33:54;100482.40;;;
79488;BMP180;68949;53.176;18.088;2023-12-04T14:36:21;100489.00;;;
79488;BMP180;68949;53.176;18.088;2023-12-04T14:38:48;100490.00;;;
79488;BMP180;68949;53.176;18.088;2023-12-04T14:41:14;100483.00;;;
79488;BMP180;68949;53.176;18.088;2023-12-04T14:43:41;100491.40;;;
79488;BMP180;68949;53.176;18.088;2023-12-04T14:46:09;100492.60;;;
79488;BMP180;68949;53.176;18.088;2023-12-04T14:48:38;100489.80;;;
79488;BMP180;68949;53.176;18.088;2023-12-04T14:51:07;100494.20;;;
79488;BMP180;68949;53.176;18.088;2023-12-04T14:53:38;100490.40;;;